Terminal Aerodrome Forecast
Issued by NWS Jacksonville, FL

Home | Current Version | Previous Version | Text Only | Print | Product List | Glossary On
Versions: 1 2 3 4 5 6 7 8 9 10 11 12 13 14 15 16 17 18 19 20 21 22 23 24
000
FTUS42 KJAX 210520
TAFGNV
TAF
KGNV 210520Z 2106/2206 VRB03KT P6SM BKN250
     FM210800 00000KT 2SM BR BKN003
     FM211300 VRB03KT P6SM SCT020 SCT250
     FM211700 22006KT P6SM VCTS BKN030CB BKN250
     FM220300 23003KT P6SM SCT250=

USA.gov is the U.S. government's official web portal to all federal, state and local government web resources and services.